sensor_id;sensor_type;location;lat;lon;timestamp;P1;durP1;ratioP1;P2;durP2;ratioP2
14994;SDS011;7593;49.006;8.372;2022-11-30T00:01:14;34.03;;;22.23;;
14994;SDS011;7593;49.006;8.372;2022-11-30T00:03:43;33.08;;;22.98;;
14994;SDS011;7593;49.006;8.372;2022-11-30T00:06:10;33.35;;;22.15;;
14994;SDS011;7593;49.006;8.372;2022-11-30T00:08:40;32.92;;;21.83;;
14994;SDS011;7593;49.006;8.372;2022-11-30T00:11:08;32.47;;;21.52;;
14994;SDS011;7593;49.006;8.372;2022-11-30T00:13:37;31.13;;;21.08;;
14994;SDS011;7593;49.006;8.372;2022-11-30T00:16:04;29.27;;;21.17;;
14994;SDS011;7593;49.006;8.372;2022-11-30T00:18:31;31.60;;;21.38;;
14994;SDS011;7593;49.006;8.372;2022-11-30T00:20:59;29.23;;;20.17;;
14994;SDS011;7593;49.006;8.372;2022-11-30T00:23:26;32.50;;;21.02;;
14994;SDS011;7593;49.006;8.372;2022-11-30T00:26:00;37.83;;;21.17;;
14994;SDS011;7593;49.006;8.372;2022-11-30T00:28:27;28.23;;;20.95;;
14994;SDS011;7593;49.006;8.372;2022-11-30T00:30:57;30.45;;;20.77;;
14994;SDS011;7593;49.006;8.372;2022-11-30T00:33:25;28.67;;;20.73;;
14994;SDS011;7593;49.006;8.372;2022-11-30T00:35:55;25.27;;;19.17;;
14994;SDS011;7593;49.006;8.372;2022-11-30T00:38:23;33.38;;;22.10;;
14994;SDS011;7593;49.006;8.372;2022-11-30T00:40:49;32.22;;;22.77;;
14994;SDS011;7593;49.006;8.372;2022-11-30T00:43:18;30.10;;;21.55;;
14994;SDS011;7593;49.006;8.372;2022-11-30T00:45:45;29.73;;;21.00;;
14994;SDS011;7593;49.006;8.372;2022-11-30T00:48:12;32.13;;;21.95;;
14994;SDS011;7593;49.006;8.372;2022-11-30T00:50:39;30.38;;;21.05;;
14994;SDS011;7593;49.006;8.372;2022-11-30T00:53:06;28.17;;;20.90;;
14994;SDS011;7593;49.006;8.372;2022-11-30T00:55:32;32.03;;;21.58;;
14994;SDS011;7593;49.006;8.372;2022-11-30T00:57:59;28.95;;;20.17;;
14994;SDS011;7593;49.006;8.372;2022-11-30T01:00:28;29.50;;;20.30;;
14994;SDS011;7593;49.006;8.372;2022-11-30T01:02:55;30.48;;;20.35;;
14994;SDS011;7593;49.006;8.372;2022-11-30T01:05:23;33.53;;;20.73;;
14994;SDS011;7593;49.006;8.372;2022-11-30T01:07:50;31.98;;;20.77;;
14994;SDS011;7593;49.006;8.372;2022-11-30T01:10:17;34.50;;;21.23;;
14994;SDS011;7593;49.006;8.372;2022-11-30T01:12:44;30.33;;;21.13;;
14994;SDS011;7593;49.006;8.372;2022-11-30T01:15:11;33.47;;;21.13;;
14994;SDS011;7593;49.006;8.372;2022-11-30T01:17:39;30.70;;;20.67;;
14994;SDS011;7593;49.006;8.372;2022-11-30T01:20:06;30.05;;;20.70;;
14994;SDS011;7593;49.006;8.372;2022-11-30T01:22:33;30.52;;;21.05;;
14994;SDS011;7593;49.006;8.372;2022-11-30T01:25:00;33.60;;;20.70;;
14994;SDS011;7593;49.006;8.372;2022-11-30T01:27:27;37.42;;;21.88;;
14994;SDS011;7593;49.006;8.372;2022-11-30T01:29:54;37.08;;;21.35;;
14994;SDS011;7593;49.006;8.372;2022-11-30T01:32:21;38.90;;;20.98;;
14994;SDS011;7593;49.006;8.372;2022-11-30T01:34:50;40.17;;;22.08;;
14994;SDS011;7593;49.006;8.372;2022-11-30T01:37:17;40.70;;;21.55;;
14994;SDS011;7593;49.006;8.372;2022-11-30T01:39:44;36.45;;;20.25;;
14994;SDS011;7593;49.006;8.372;2022-11-30T01:42:12;37.30;;;21.15;;
14994;SDS011;7593;49.006;8.372;2022-11-30T01:44:48;37.95;;;20.63;;
14994;SDS011;7593;49.006;8.372;2022-11-30T01:47:17;37.45;;;19.75;;
14994;SDS011;7593;49.006;8.372;2022-11-30T01:49:47;38.70;;;20.27;;
14994;SDS011;7593;49.006;8.372;2022-11-30T01:52:18;39.25;;;20.40;;
14994;SDS011;7593;49.006;8.372;2022-11-30T01:54:49;43.13;;;21.58;;
14994;SDS011;7593;49.006;8.372;2022-11-30T01:57:20;45.60;;;20.98;;
14994;SDS011;7593;49.006;8.372;2022-11-30T01:59:52;40.08;;;21.63;;
14994;SDS011;7593;49.006;8.372;2022-11-30T02:02:23;44.33;;;22.17;;
14994;SDS011;7593;49.006;8.372;2022-11-30T02:04:58;42.22;;;22.60;;
14994;SDS011;7593;49.006;8.372;2022-11-30T02:07:25;46.85;;;21.05;;
14994;SDS011;7593;49.006;8.372;2022-11-30T02:09:52;40.47;;;21.80;;
14994;SDS011;7593;49.006;8.372;2022-11-30T02:12:21;37.90;;;21.48;;
14994;SDS011;7593;49.006;8.372;2022-11-30T02:14:59;46.95;;;22.45;;
14994;SDS011;7593;49.006;8.372;2022-11-30T02:17:34;43.33;;;21.83;;
14994;SDS011;7593;49.006;8.372;2022-11-30T02:20:18;45.03;;;22.92;;
14994;SDS011;7593;49.006;8.372;2022-11-30T02:23:23;46.60;;;23.08;;
14994;SDS011;7593;49.006;8.372;2022-11-30T02:26:09;51.47;;;22.63;;
14994;SDS011;7593;49.006;8.372;2022-11-30T02:31:39;45.30;;;22.10;;
14994;SDS011;7593;49.006;8.372;2022-11-30T02:34:10;45.17;;;22.30;;
14994;SDS011;7593;49.006;8.372;2022-11-30T02:36:40;47.20;;;23.60;;
14994;SDS011;7593;49.006;8.372;2022-11-30T02:39:08;45.63;;;23.42;;
14994;SDS011;7593;49.006;8.372;2022-11-30T02:41:36;42.78;;;23.17;;
14994;SDS011;7593;49.006;8.372;2022-11-30T02:44:03;41.28;;;22.85;;
14994;SDS011;7593;49.006;8.372;2022-11-30T02:46:35;44.55;;;23.15;;
14994;SDS011;7593;49.006;8.372;2022-11-30T02:49:09;48.90;;;23.55;;
14994;SDS011;7593;49.006;8.372;2022-11-30T02:51:42;49.38;;;24.23;;
14994;SDS011;7593;49.006;8.372;2022-11-30T02:54:10;49.60;;;24.23;;
14994;SDS011;7593;49.006;8.372;2022-11-30T02:56:37;44.30;;;24.50;;
14994;SDS011;7593;49.006;8.372;2022-11-30T02:59:04;47.78;;;24.20;;
14994;SDS011;7593;49.006;8.372;2022-11-30T03:01:31;47.25;;;23.30;;
14994;SDS011;7593;49.006;8.372;2022-11-30T03:03:59;47.90;;;23.42;;
14994;SDS011;7593;49.006;8.372;2022-11-30T03:06:26;46.40;;;23.65;;
14994;SDS011;7593;49.006;8.372;2022-11-30T03:08:53;48.92;;;24.92;;
14994;SDS011;7593;49.006;8.372;2022-11-30T03:11:19;52.13;;;25.42;;
14994;SDS011;7593;49.006;8.372;2022-11-30T03:13:46;53.72;;;24.05;;
14994;SDS011;7593;49.006;8.372;2022-11-30T03:16:13;56.05;;;25.15;;
14994;SDS011;7593;49.006;8.372;2022-11-30T03:18:40;51.05;;;24.05;;
14994;SDS011;7593;49.006;8.372;2022-11-30T03:21:09;52.28;;;24.60;;
14994;SDS011;7593;49.006;8.372;2022-11-30T03:23:37;47.75;;;24.58;;
14994;SDS011;7593;49.006;8.372;2022-11-30T03:26:05;47.10;;;24.10;;
14994;SDS011;7593;49.006;8.372;2022-11-30T03:28:33;50.90;;;24.48;;
14994;SDS011;7593;49.006;8.372;2022-11-30T03:31:00;46.17;;;24.55;;
14994;SDS011;7593;49.006;8.372;2022-11-30T03:33:28;47.75;;;23.90;;
14994;SDS011;7593;49.006;8.372;2022-11-30T03:35:59;45.35;;;24.25;;
14994;SDS011;7593;49.006;8.372;2022-11-30T03:38:28;48.05;;;25.75;;
14994;SDS011;7593;49.006;8.372;2022-11-30T03:40:58;46.35;;;22.65;;
14994;SDS011;7593;49.006;8.372;2022-11-30T03:43:26;50.05;;;23.52;;
14994;SDS011;7593;49.006;8.372;2022-11-30T03:45:53;45.85;;;24.20;;
14994;SDS011;7593;49.006;8.372;2022-11-30T03:48:20;38.28;;;21.67;;
14994;SDS011;7593;49.006;8.372;2022-11-30T03:50:47;47.70;;;23.40;;
14994;SDS011;7593;49.006;8.372;2022-11-30T03:53:14;43.00;;;22.60;;
14994;SDS011;7593;49.006;8.372;2022-11-30T03:55:42;42.03;;;22.58;;
14994;SDS011;7593;49.006;8.372;2022-11-30T03:58:09;45.38;;;22.90;;
14994;SDS011;7593;49.006;8.372;2022-11-30T04:00:36;43.53;;;22.50;;
14994;SDS011;7593;49.006;8.372;2022-11-30T04:03:03;49.15;;;22.48;;
14994;SDS011;7593;49.006;8.372;2022-11-30T04:05:30;45.03;;;20.88;;
14994;SDS011;7593;49.006;8.372;2022-11-30T04:07:57;41.55;;;21.95;;
14994;SDS011;7593;49.006;8.372;2022-11-30T04:10:24;45.53;;;21.75;;
14994;SDS011;7593;49.006;8.372;2022-11-30T04:12:52;41.53;;;21.67;;
14994;SDS011;7593;49.006;8.372;2022-11-30T04:15:19;46.35;;;22.50;;
14994;SDS011;7593;49.006;8.372;2022-11-30T04:17:46;42.92;;;22.10;;
14994;SDS011;7593;49.006;8.372;2022-11-30T04:20:12;38.70;;;20.77;;
14994;SDS011;7593;49.006;8.372;2022-11-30T04:22:39;39.40;;;22.00;;
14994;SDS011;7593;49.006;8.372;2022-11-30T04:25:06;39.42;;;21.75;;
14994;SDS011;7593;49.006;8.372;2022-11-30T04:27:33;39.95;;;21.40;;
14994;SDS011;7593;49.006;8.372;2022-11-30T04:30:02;39.97;;;21.20;;
14994;SDS011;7593;49.006;8.372;2022-11-30T04:32:30;41.53;;;22.40;;
14994;SDS011;7593;49.006;8.372;2022-11-30T04:34:56;42.25;;;21.58;;
14994;SDS011;7593;49.006;8.372;2022-11-30T04:37:23;43.38;;;22.20;;
14994;SDS011;7593;49.006;8.372;2022-11-30T04:39:50;41.42;;;22.25;;
14994;SDS011;7593;49.006;8.372;2022-11-30T04:42:17;43.88;;;22.40;;
14994;SDS011;7593;49.006;8.372;2022-11-30T04:44:44;39.10;;;21.20;;
14994;SDS011;7593;49.006;8.372;2022-11-30T04:47:12;38.95;;;22.35;;
14994;SDS011;7593;49.006;8.372;2022-11-30T04:49:39;36.42;;;20.85;;
14994;SDS011;7593;49.006;8.372;2022-11-30T04:52:06;29.85;;;19.10;;
14994;SDS011;7593;49.006;8.372;2022-11-30T04:54:32;32.50;;;19.70;;
14994;SDS011;7593;49.006;8.372;2022-11-30T04:56:59;30.90;;;18.40;;
14994;SDS011;7593;49.006;8.372;2022-11-30T04:59:26;33.42;;;19.52;;
14994;SDS011;7593;49.006;8.372;2022-11-30T05:01:53;31.83;;;18.85;;
14994;SDS011;7593;49.006;8.372;2022-11-30T05:04:21;32.78;;;18.20;;
14994;SDS011;7593;49.006;8.372;2022-11-30T05:06:48;32.42;;;18.77;;
14994;SDS011;7593;49.006;8.372;2022-11-30T05:09:14;34.45;;;19.42;;
14994;SDS011;7593;49.006;8.372;2022-11-30T05:11:41;30.67;;;18.80;;
14994;SDS011;7593;49.006;8.372;2022-11-30T05:14:08;30.45;;;17.60;;
14994;SDS011;7593;49.006;8.372;2022-11-30T05:16:35;29.27;;;18.25;;
14994;SDS011;7593;49.006;8.372;2022-11-30T05:19:02;32.63;;;19.42;;
14994;SDS011;7593;49.006;8.372;2022-11-30T05:21:30;32.88;;;20.15;;
14994;SDS011;7593;49.006;8.372;2022-11-30T05:23:57;29.73;;;18.27;;
14994;SDS011;7593;49.006;8.372;2022-11-30T05:26:24;31.60;;;18.67;;
14994;SDS011;7593;49.006;8.372;2022-11-30T05:28:51;29.35;;;18.73;;
14994;SDS011;7593;49.006;8.372;2022-11-30T05:31:18;31.23;;;18.65;;
14994;SDS011;7593;49.006;8.372;2022-11-30T05:33:48;32.20;;;19.40;;
14994;SDS011;7593;49.006;8.372;2022-11-30T05:36:16;32.65;;;19.10;;
14994;SDS011;7593;49.006;8.372;2022-11-30T05:38:44;39.63;;;25.80;;
14994;SDS011;7593;49.006;8.372;2022-11-30T05:41:11;28.25;;;19.02;;
14994;SDS011;7593;49.006;8.372;2022-11-30T05:43:38;31.67;;;19.90;;
14994;SDS011;7593;49.006;8.372;2022-11-30T05:46:06;30.23;;;19.65;;
14994;SDS011;7593;49.006;8.372;2022-11-30T05:48:34;31.73;;;20.58;;
14994;SDS011;7593;49.006;8.372;2022-11-30T05:51:05;30.90;;;19.02;;
14994;SDS011;7593;49.006;8.372;2022-11-30T05:53:32;28.08;;;18.73;;
14994;SDS011;7593;49.006;8.372;2022-11-30T05:56:01;29.65;;;19.58;;
14994;SDS011;7593;49.006;8.372;2022-11-30T05:58:29;30.73;;;20.98;;
14994;SDS011;7593;49.006;8.372;2022-11-30T06:00:56;33.95;;;21.55;;
14994;SDS011;7593;49.006;8.372;2022-11-30T06:03:22;30.35;;;18.80;;
14994;SDS011;7593;49.006;8.372;2022-11-30T06:05:49;31.20;;;19.98;;
14994;SDS011;7593;49.006;8.372;2022-11-30T06:08:16;28.63;;;18.58;;
14994;SDS011;7593;49.006;8.372;2022-11-30T06:10:43;29.35;;;19.90;;
14994;SDS011;7593;49.006;8.372;2022-11-30T06:13:12;27.00;;;19.10;;
14994;SDS011;7593;49.006;8.372;2022-11-30T06:15:39;29.30;;;18.95;;
14994;SDS011;7593;49.006;8.372;2022-11-30T06:18:07;26.30;;;19.25;;
14994;SDS011;7593;49.006;8.372;2022-11-30T06:20:35;28.00;;;19.42;;
14994;SDS011;7593;49.006;8.372;2022-11-30T06:23:02;29.90;;;19.10;;
14994;SDS011;7593;49.006;8.372;2022-11-30T06:25:29;26.15;;;18.75;;
14994;SDS011;7593;49.006;8.372;2022-11-30T06:27:56;26.70;;;18.40;;
14994;SDS011;7593;49.006;8.372;2022-11-30T06:30:25;24.10;;;16.90;;
14994;SDS011;7593;49.006;8.372;2022-11-30T06:32:51;20.65;;;15.13;;
14994;SDS011;7593;49.006;8.372;2022-11-30T06:35:18;21.17;;;16.05;;
14994;SDS011;7593;49.006;8.372;2022-11-30T06:37:45;19.83;;;14.57;;
14994;SDS011;7593;49.006;8.372;2022-11-30T06:40:12;17.52;;;14.10;;
14994;SDS011;7593;49.006;8.372;2022-11-30T06:42:40;18.50;;;14.30;;
14994;SDS011;7593;49.006;8.372;2022-11-30T06:45:07;19.60;;;14.85;;
14994;SDS011;7593;49.006;8.372;2022-11-30T06:47:36;19.88;;;14.75;;
14994;SDS011;7593;49.006;8.372;2022-11-30T06:50:03;17.23;;;14.30;;
14994;SDS011;7593;49.006;8.372;2022-11-30T06:52:32;18.47;;;14.80;;
14994;SDS011;7593;49.006;8.372;2022-11-30T06:54:59;18.02;;;14.27;;
14994;SDS011;7593;49.006;8.372;2022-11-30T06:57:26;18.73;;;14.73;;
14994;SDS011;7593;49.006;8.372;2022-11-30T06:59:53;17.23;;;13.77;;
14994;SDS011;7593;49.006;8.372;2022-11-30T07:02:20;17.13;;;14.10;;
14994;SDS011;7593;49.006;8.372;2022-11-30T07:04:48;21.58;;;15.90;;
14994;SDS011;7593;49.006;8.372;2022-11-30T07:07:15;18.73;;;13.83;;
14994;SDS011;7593;49.006;8.372;2022-11-30T07:09:42;18.08;;;13.65;;
14994;SDS011;7593;49.006;8.372;2022-11-30T07:12:09;18.30;;;13.90;;
14994;SDS011;7593;49.006;8.372;2022-11-30T07:14:36;17.77;;;14.10;;
14994;SDS011;7593;49.006;8.372;2022-11-30T07:17:03;16.77;;;14.23;;
14994;SDS011;7593;49.006;8.372;2022-11-30T07:19:30;16.80;;;13.32;;
14994;SDS011;7593;49.006;8.372;2022-11-30T07:21:58;16.45;;;13.35;;
14994;SDS011;7593;49.006;8.372;2022-11-30T07:24:25;17.53;;;13.70;;
14994;SDS011;7593;49.006;8.372;2022-11-30T07:27:09;18.03;;;13.87;;
14994;SDS011;7593;49.006;8.372;2022-11-30T07:29:36;16.25;;;13.38;;
14994;SDS011;7593;49.006;8.372;2022-11-30T07:32:03;17.00;;;13.82;;
14994;SDS011;7593;49.006;8.372;2022-11-30T07:34:30;16.77;;;13.50;;
14994;SDS011;7593;49.006;8.372;2022-11-30T07:36:58;16.27;;;13.75;;
14994;SDS011;7593;49.006;8.372;2022-11-30T07:39:25;15.90;;;13.23;;
14994;SDS011;7593;49.006;8.372;2022-11-30T07:41:52;17.30;;;12.45;;
14994;SDS011;7593;49.006;8.372;2022-11-30T07:44:18;17.83;;;14.23;;
14994;SDS011;7593;49.006;8.372;2022-11-30T07:46:45;16.90;;;13.80;;
14994;SDS011;7593;49.006;8.372;2022-11-30T07:49:12;16.45;;;13.70;;
14994;SDS011;7593;49.006;8.372;2022-11-30T07:51:39;16.60;;;13.93;;
14994;SDS011;7593;49.006;8.372;2022-11-30T07:54:07;17.08;;;14.05;;
14994;SDS011;7593;49.006;8.372;2022-11-30T07:56:34;16.08;;;13.82;;
14994;SDS011;7593;49.006;8.372;2022-11-30T07:59:01;23.85;;;14.13;;
14994;SDS011;7593;49.006;8.372;2022-11-30T08:01:29;17.25;;;14.00;;
14994;SDS011;7593;49.006;8.372;2022-11-30T08:03:57;18.42;;;14.52;;
14994;SDS011;7593;49.006;8.372;2022-11-30T08:06:26;16.40;;;13.70;;
14994;SDS011;7593;49.006;8.372;2022-11-30T08:08:55;15.70;;;13.50;;
14994;SDS011;7593;49.006;8.372;2022-11-30T08:11:25;17.42;;;13.60;;
14994;SDS011;7593;49.006;8.372;2022-11-30T08:13:53;19.15;;;14.00;;
14994;SDS011;7593;49.006;8.372;2022-11-30T08:16:20;21.40;;;15.82;;
14994;SDS011;7593;49.006;8.372;2022-11-30T08:18:50;17.17;;;13.45;;
14994;SDS011;7593;49.006;8.372;2022-11-30T08:21:18;16.33;;;13.95;;
14994;SDS011;7593;49.006;8.372;2022-11-30T08:23:46;17.38;;;13.65;;
14994;SDS011;7593;49.006;8.372;2022-11-30T08:26:15;17.27;;;13.63;;
14994;SDS011;7593;49.006;8.372;2022-11-30T08:28:45;19.63;;;13.18;;
14994;SDS011;7593;49.006;8.372;2022-11-30T08:31:14;16.33;;;13.18;;
14994;SDS011;7593;49.006;8.372;2022-11-30T08:33:42;14.98;;;12.45;;
14994;SDS011;7593;49.006;8.372;2022-11-30T08:36:10;17.88;;;13.00;;
14994;SDS011;7593;49.006;8.372;2022-11-30T08:38:38;18.35;;;13.50;;
14994;SDS011;7593;49.006;8.372;2022-11-30T08:41:06;15.55;;;12.55;;
14994;SDS011;7593;49.006;8.372;2022-11-30T08:43:34;17.05;;;13.77;;
14994;SDS011;7593;49.006;8.372;2022-11-30T08:46:03;16.70;;;12.60;;
14994;SDS011;7593;49.006;8.372;2022-11-30T08:48:31;17.88;;;13.00;;
14994;SDS011;7593;49.006;8.372;2022-11-30T08:50:59;15.35;;;12.95;;
14994;SDS011;7593;49.006;8.372;2022-11-30T08:53:26;16.92;;;13.20;;
14994;SDS011;7593;49.006;8.372;2022-11-30T08:55:56;14.65;;;12.07;;
14994;SDS011;7593;49.006;8.372;2022-11-30T08:58:24;15.77;;;13.25;;
14994;SDS011;7593;49.006;8.372;2022-11-30T09:00:51;15.65;;;11.95;;
14994;SDS011;7593;49.006;8.372;2022-11-30T09:03:20;15.80;;;12.57;;
14994;SDS011;7593;49.006;8.372;2022-11-30T09:05:47;18.15;;;13.05;;
14994;SDS011;7593;49.006;8.372;2022-11-30T09:08:13;16.58;;;13.02;;
14994;SDS011;7593;49.006;8.372;2022-11-30T09:10:40;16.23;;;12.73;;
14994;SDS011;7593;49.006;8.372;2022-11-30T09:13:07;14.40;;;11.93;;
14994;SDS011;7593;49.006;8.372;2022-11-30T09:15:34;16.48;;;11.93;;
14994;SDS011;7593;49.006;8.372;2022-11-30T09:18:01;15.30;;;12.90;;
14994;SDS011;7593;49.006;8.372;2022-11-30T09:20:29;15.02;;;12.38;;
14994;SDS011;7593;49.006;8.372;2022-11-30T09:22:57;14.30;;;12.65;;
14994;SDS011;7593;49.006;8.372;2022-11-30T09:25:24;13.57;;;11.80;;
14994;SDS011;7593;49.006;8.372;2022-11-30T09:27:51;15.40;;;12.13;;
14994;SDS011;7593;49.006;8.372;2022-11-30T09:30:18;14.80;;;11.65;;
14994;SDS011;7593;49.006;8.372;2022-11-30T09:32:45;14.25;;;11.07;;
14994;SDS011;7593;49.006;8.372;2022-11-30T09:35:12;15.90;;;11.80;;
14994;SDS011;7593;49.006;8.372;2022-11-30T09:37:42;13.95;;;11.63;;
14994;SDS011;7593;49.006;8.372;2022-11-30T09:40:12;13.52;;;11.20;;
14994;SDS011;7593;49.006;8.372;2022-11-30T09:42:44;14.75;;;11.52;;
14994;SDS011;7593;49.006;8.372;2022-11-30T09:45:18;14.90;;;12.68;;
14994;SDS011;7593;49.006;8.372;2022-11-30T09:50:44;13.57;;;11.52;;
14994;SDS011;7593;49.006;8.372;2022-11-30T09:53:17;13.05;;;11.13;;
14994;SDS011;7593;49.006;8.372;2022-11-30T09:55:46;14.68;;;11.52;;
14994;SDS011;7593;49.006;8.372;2022-11-30T09:58:17;13.10;;;11.32;;
14994;SDS011;7593;49.006;8.372;2022-11-30T10:00:51;12.90;;;11.05;;
14994;SDS011;7593;49.006;8.372;2022-11-30T10:03:18;12.82;;;11.10;;
14994;SDS011;7593;49.006;8.372;2022-11-30T10:05:49;14.65;;;12.18;;
14994;SDS011;7593;49.006;8.372;2022-11-30T10:08:26;15.27;;;11.88;;
14994;SDS011;7593;49.006;8.372;2022-11-30T10:11:23;12.02;;;10.60;;
14994;SDS011;7593;49.006;8.372;2022-11-30T10:14:05;13.48;;;10.82;;
14994;SDS011;7593;49.006;8.372;2022-11-30T10:16:43;13.95;;;11.45;;
14994;SDS011;7593;49.006;8.372;2022-11-30T10:19:18;13.15;;;11.20;;
14994;SDS011;7593;49.006;8.372;2022-11-30T10:21:58;13.68;;;11.57;;
14994;SDS011;7593;49.006;8.372;2022-11-30T10:24:41;12.88;;;11.45;;
14994;SDS011;7593;49.006;8.372;2022-11-30T10:27:24;13.23;;;10.70;;
14994;SDS011;7593;49.006;8.372;2022-11-30T10:29:59;13.52;;;11.15;;
14994;SDS011;7593;49.006;8.372;2022-11-30T10:32:28;14.88;;;11.02;;
14994;SDS011;7593;49.006;8.372;2022-11-30T10:35:02;12.35;;;11.05;;
14994;SDS011;7593;49.006;8.372;2022-11-30T10:37:40;12.95;;;11.05;;
14994;SDS011;7593;49.006;8.372;2022-11-30T10:40:10;12.73;;;10.93;;
14994;SDS011;7593;49.006;8.372;2022-11-30T10:42:43;13.60;;;10.32;;
14994;SDS011;7593;49.006;8.372;2022-11-30T10:45:15;12.75;;;11.05;;
14994;SDS011;7593;49.006;8.372;2022-11-30T10:47:45;13.40;;;10.63;;
14994;SDS011;7593;49.006;8.372;2022-11-30T10:50:15;11.77;;;10.20;;
14994;SDS011;7593;49.006;8.372;2022-11-30T10:52:44;13.40;;;10.75;;
14994;SDS011;7593;49.006;8.372;2022-11-30T10:55:16;13.48;;;10.43;;
14994;SDS011;7593;49.006;8.372;2022-11-30T10:57:45;11.85;;;10.57;;
14994;SDS011;7593;49.006;8.372;2022-11-30T11:00:15;13.85;;;10.75;;
14994;SDS011;7593;49.006;8.372;2022-11-30T11:02:43;14.48;;;10.57;;
14994;SDS011;7593;49.006;8.372;2022-11-30T11:05:16;14.05;;;10.07;;
14994;SDS011;7593;49.006;8.372;2022-11-30T11:07:49;16.13;;;11.80;;
14994;SDS011;7593;49.006;8.372;2022-11-30T11:10:28;14.80;;;11.57;;
14994;SDS011;7593;49.006;8.372;2022-11-30T11:12:58;15.70;;;12.68;;
14994;SDS011;7593;49.006;8.372;2022-11-30T11:15:25;15.45;;;11.80;;
14994;SDS011;7593;49.006;8.372;2022-11-30T11:20:47;13.82;;;10.60;;
14994;SDS011;7593;49.006;8.372;2022-11-30T11:23:26;13.18;;;10.48;;
14994;SDS011;7593;49.006;8.372;2022-11-30T11:25:58;13.75;;;10.85;;
14994;SDS011;7593;49.006;8.372;2022-11-30T11:28:25;11.43;;;9.98;;
14994;SDS011;7593;49.006;8.372;2022-11-30T11:30:54;12.90;;;10.35;;
14994;SDS011;7593;49.006;8.372;2022-11-30T11:33:22;13.52;;;10.52;;
14994;SDS011;7593;49.006;8.372;2022-11-30T11:35:51;13.32;;;10.45;;
14994;SDS011;7593;49.006;8.372;2022-11-30T11:38:20;12.02;;;10.45;;
14994;SDS011;7593;49.006;8.372;2022-11-30T11:40:50;12.43;;;10.73;;
14994;SDS011;7593;49.006;8.372;2022-11-30T11:43:20;12.88;;;10.45;;
14994;SDS011;7593;49.006;8.372;2022-11-30T11:45:49;12.98;;;10.77;;
14994;SDS011;7593;49.006;8.372;2022-11-30T11:48:28;12.23;;;10.52;;
14994;SDS011;7593;49.006;8.372;2022-11-30T11:50:59;11.95;;;10.63;;
14994;SDS011;7593;49.006;8.372;2022-11-30T11:53:42;12.07;;;10.35;;
14994;SDS011;7593;49.006;8.372;2022-11-30T11:56:13;15.13;;;10.63;;
14994;SDS011;7593;49.006;8.372;2022-11-30T11:58:48;13.07;;;10.68;;
14994;SDS011;7593;49.006;8.372;2022-11-30T12:01:35;13.80;;;11.90;;
14994;SDS011;7593;49.006;8.372;2022-11-30T12:04:14;15.57;;;11.30;;
14994;SDS011;7593;49.006;8.372;2022-11-30T12:06:54;18.75;;;10.82;;
14994;SDS011;7593;49.006;8.372;2022-11-30T12:09:24;13.05;;;10.35;;
14994;SDS011;7593;49.006;8.372;2022-11-30T12:11:55;12.48;;;10.18;;
14994;SDS011;7593;49.006;8.372;2022-11-30T12:14:24;12.07;;;10.70;;
14994;SDS011;7593;49.006;8.372;2022-11-30T12:16:57;11.48;;;10.27;;
14994;SDS011;7593;49.006;8.372;2022-11-30T12:19:32;11.68;;;10.48;;
14994;SDS011;7593;49.006;8.372;2022-11-30T12:22:06;12.18;;;10.35;;
14994;SDS011;7593;49.006;8.372;2022-11-30T12:24:51;18.95;;;11.65;;
14994;SDS011;7593;49.006;8.372;2022-11-30T12:27:42;12.75;;;10.30;;
14994;SDS011;7593;49.006;8.372;2022-11-30T12:30:20;12.32;;;10.57;;
14994;SDS011;7593;49.006;8.372;2022-11-30T12:35:44;11.80;;;9.95;;
14994;SDS011;7593;49.006;8.372;2022-11-30T12:38:19;11.20;;;10.02;;
14994;SDS011;7593;49.006;8.372;2022-11-30T12:40:57;14.52;;;10.75;;
14994;SDS011;7593;49.006;8.372;2022-11-30T12:43:33;11.32;;;9.95;;
14994;SDS011;7593;49.006;8.372;2022-11-30T12:46:11;12.55;;;10.30;;
14994;SDS011;7593;49.006;8.372;2022-11-30T12:48:46;12.35;;;10.57;;
14994;SDS011;7593;49.006;8.372;2022-11-30T12:51:23;11.88;;;10.32;;
14994;SDS011;7593;49.006;8.372;2022-11-30T12:53:58;11.82;;;10.57;;
14994;SDS011;7593;49.006;8.372;2022-11-30T12:56:34;13.07;;;11.30;;
14994;SDS011;7593;49.006;8.372;2022-11-30T12:59:07;16.23;;;11.35;;
14994;SDS011;7593;49.006;8.372;2022-11-30T13:01:54;12.70;;;11.25;;
14994;SDS011;7593;49.006;8.372;2022-11-30T13:04:32;13.00;;;11.38;;
14994;SDS011;7593;49.006;8.372;2022-11-30T13:07:05;14.60;;;11.70;;
14994;SDS011;7593;49.006;8.372;2022-11-30T13:09:39;16.60;;;12.23;;
14994;SDS011;7593;49.006;8.372;2022-11-30T13:12:11;15.88;;;11.80;;
14994;SDS011;7593;49.006;8.372;2022-11-30T13:14:41;16.15;;;12.32;;
14994;SDS011;7593;49.006;8.372;2022-11-30T13:17:12;13.73;;;11.75;;
14994;SDS011;7593;49.006;8.372;2022-11-30T13:19:43;13.55;;;11.55;;
14994;SDS011;7593;49.006;8.372;2022-11-30T13:22:20;12.68;;;11.38;;
14994;SDS011;7593;49.006;8.372;2022-11-30T13:24:51;17.58;;;12.05;;
14994;SDS011;7593;49.006;8.372;2022-11-30T13:27:25;14.27;;;11.80;;
14994;SDS011;7593;49.006;8.372;2022-11-30T13:29:58;14.70;;;12.40;;
14994;SDS011;7593;49.006;8.372;2022-11-30T13:32:38;15.70;;;12.80;;
14994;SDS011;7593;49.006;8.372;2022-11-30T13:38:12;14.23;;;12.43;;
14994;SDS011;7593;49.006;8.372;2022-11-30T13:40:50;15.73;;;12.80;;
14994;SDS011;7593;49.006;8.372;2022-11-30T13:43:19;13.48;;;11.27;;
14994;SDS011;7593;49.006;8.372;2022-11-30T13:45:47;16.33;;;13.23;;
14994;SDS011;7593;49.006;8.372;2022-11-30T13:48:17;13.88;;;11.77;;
14994;SDS011;7593;49.006;8.372;2022-11-30T13:50:55;24.95;;;15.38;;
14994;SDS011;7593;49.006;8.372;2022-11-30T13:53:23;15.15;;;12.82;;
14994;SDS011;7593;49.006;8.372;2022-11-30T13:55:54;14.68;;;12.43;;
14994;SDS011;7593;49.006;8.372;2022-11-30T13:58:26;14.00;;;12.35;;
14994;SDS011;7593;49.006;8.372;2022-11-30T14:01:18;14.63;;;12.60;;
14994;SDS011;7593;49.006;8.372;2022-11-30T14:07:31;13.07;;;11.02;;
14994;SDS011;7593;49.006;8.372;2022-11-30T14:09:59;14.25;;;10.75;;
14994;SDS011;7593;49.006;8.372;2022-11-30T14:15:26;13.50;;;10.88;;
14994;SDS011;7593;49.006;8.372;2022-11-30T14:18:13;12.85;;;11.55;;
14994;SDS011;7593;49.006;8.372;2022-11-30T14:20:46;15.40;;;11.38;;
14994;SDS011;7593;49.006;8.372;2022-11-30T14:23:18;15.23;;;11.98;;
14994;SDS011;7593;49.006;8.372;2022-11-30T14:25:50;13.95;;;11.27;;
14994;SDS011;7593;49.006;8.372;2022-11-30T14:28:21;12.68;;;11.43;;
14994;SDS011;7593;49.006;8.372;2022-11-30T14:30:50;14.80;;;11.75;;
14994;SDS011;7593;49.006;8.372;2022-11-30T14:33:21;12.88;;;11.52;;
14994;SDS011;7593;49.006;8.372;2022-11-30T14:35:53;13.50;;;11.63;;
14994;SDS011;7593;49.006;8.372;2022-11-30T14:38:24;14.25;;;11.98;;
14994;SDS011;7593;49.006;8.372;2022-11-30T14:40:54;14.00;;;12.23;;
14994;SDS011;7593;49.006;8.372;2022-11-30T14:43:21;14.68;;;12.48;;
14994;SDS011;7593;49.006;8.372;2022-11-30T14:45:55;16.48;;;12.63;;
14994;SDS011;7593;49.006;8.372;2022-11-30T14:48:23;13.50;;;11.68;;
14994;SDS011;7593;49.006;8.372;2022-11-30T14:50:51;15.88;;;12.68;;
14994;SDS011;7593;49.006;8.372;2022-11-30T14:53:28;16.92;;;13.20;;
14994;SDS011;7593;49.006;8.372;2022-11-30T14:56:15;14.20;;;12.68;;
14994;SDS011;7593;49.006;8.372;2022-11-30T14:58:52;17.10;;;14.38;;
14994;SDS011;7593;49.006;8.372;2022-11-30T15:01:25;16.60;;;12.98;;
14994;SDS011;7593;49.006;8.372;2022-11-30T15:03:54;20.58;;;12.82;;
14994;SDS011;7593;49.006;8.372;2022-11-30T15:06:25;14.57;;;12.13;;
14994;SDS011;7593;49.006;8.372;2022-11-30T15:08:57;14.25;;;12.00;;
14994;SDS011;7593;49.006;8.372;2022-11-30T15:11:26;15.43;;;12.85;;
14994;SDS011;7593;49.006;8.372;2022-11-30T15:13:55;15.40;;;13.23;;